sensor_id;sensor_type;location;lat;lon;timestamp;temperature;humidity
27384;DHT22;14851;51.166;4.760;2023-11-21T00:00:42;8.00;99.90
27384;DHT22;14851;51.166;4.760;2023-11-21T00:03:08;7.90;99.90
27384;DHT22;14851;51.166;4.760;2023-11-21T00:05:35;8.00;99.90
27384;DHT22;14851;51.166;4.760;2023-11-21T00:08:04;8.00;99.90
27384;DHT22;14851;51.166;4.760;2023-11-21T00:10:30;8.00;99.90
27384;DHT22;14851;51.166;4.760;2023-11-21T00:12:56;8.00;99.90
27384;DHT22;14851;51.166;4.760;2023-11-21T00:15:22;8.00;99.90
27384;DHT22;14851;51.166;4.760;2023-11-21T00:17:50;8.00;99.90
27384;DHT22;14851;51.166;4.760;2023-11-21T00:20:16;8.00;99.90
27384;DHT22;14851;51.166;4.760;2023-11-21T00:22:42;8.00;99.90
27384;DHT22;14851;51.166;4.760;2023-11-21T00:25:08;7.90;99.90
27384;DHT22;14851;51.166;4.760;2023-11-21T00:27:36;7.90;99.90
27384;DHT22;14851;51.166;4.760;2023-11-21T00:30:05;7.90;99.90
27384;DHT22;14851;51.166;4.760;2023-11-21T00:32:37;7.80;99.90
27384;DHT22;14851;51.166;4.760;2023-11-21T00:35:03;7.90;99.90
27384;DHT22;14851;51.166;4.760;2023-11-21T00:37:32;7.80;99.90
27384;DHT22;14851;51.166;4.760;2023-11-21T00:39:58;7.80;99.90
27384;DHT22;14851;51.166;4.760;2023-11-21T00:42:24;7.90;99.90
27384;DHT22;14851;51.166;4.760;2023-11-21T00:44:50;7.90;99.90
27384;DHT22;14851;51.166;4.760;2023-11-21T00:47:16;7.90;99.90
27384;DHT22;14851;51.166;4.760;2023-11-21T00:49:44;7.90;99.90
27384;DHT22;14851;51.166;4.760;2023-11-21T00:52:10;8.00;99.90
27384;DHT22;14851;51.166;4.760;2023-11-21T00:54:35;8.00;99.90
27384;DHT22;14851;51.166;4.760;2023-11-21T00:57:01;8.00;99.90
27384;DHT22;14851;51.166;4.760;2023-11-21T00:59:27;8.00;99.90
27384;DHT22;14851;51.166;4.760;2023-11-21T01:01:54;8.00;99.90
27384;DHT22;14851;51.166;4.760;2023-11-21T01:04:24;8.00;99.90
27384;DHT22;14851;51.166;4.760;2023-11-21T01:06:50;8.10;99.90
27384;DHT22;14851;51.166;4.760;2023-11-21T01:09:17;8.10;99.90
27384;DHT22;14851;51.166;4.760;2023-11-21T01:11:45;8.10;99.90
27384;DHT22;14851;51.166;4.760;2023-11-21T01:14:11;8.10;99.90
27384;DHT22;14851;51.166;4.760;2023-11-21T01:16:39;8.10;99.90
27384;DHT22;14851;51.166;4.760;2023-11-21T01:19:07;8.10;99.90
27384;DHT22;14851;51.166;4.760;2023-11-21T01:21:33;8.10;99.90
27384;DHT22;14851;51.166;4.760;2023-11-21T01:23:59;8.10;99.90
27384;DHT22;14851;51.166;4.760;2023-11-21T01:26:25;8.10;99.90
27384;DHT22;14851;51.166;4.760;2023-11-21T01:28:51;8.10;99.90
27384;DHT22;14851;51.166;4.760;2023-11-21T01:31:20;8.10;99.90
27384;DHT22;14851;51.166;4.760;2023-11-21T01:33:48;8.10;99.90
27384;DHT22;14851;51.166;4.760;2023-11-21T01:36:15;8.20;99.90
27384;DHT22;14851;51.166;4.760;2023-11-21T01:38:44;8.20;99.90
27384;DHT22;14851;51.166;4.760;2023-11-21T01:41:09;8.10;99.90
27384;DHT22;14851;51.166;4.760;2023-11-21T01:43:40;8.20;99.90
27384;DHT22;14851;51.166;4.760;2023-11-21T01:46:06;8.10;99.90
27384;DHT22;14851;51.166;4.760;2023-11-21T01:48:33;8.10;99.90
27384;DHT22;14851;51.166;4.760;2023-11-21T01:51:02;8.10;99.90
27384;DHT22;14851;51.166;4.760;2023-11-21T01:53:28;8.10;99.90
27384;DHT22;14851;51.166;4.760;2023-11-21T01:55:56;8.10;99.90
27384;DHT22;14851;51.166;4.760;2023-11-21T01:58:22;8.10;99.90
27384;DHT22;14851;51.166;4.760;2023-11-21T02:00:48;8.10;99.90
27384;DHT22;14851;51.166;4.760;2023-11-21T02:03:19;8.10;99.90
27384;DHT22;14851;51.166;4.760;2023-11-21T02:05:45;8.10;99.90
27384;DHT22;14851;51.166;4.760;2023-11-21T02:08:13;8.10;99.90
27384;DHT22;14851;51.166;4.760;2023-11-21T02:10:39;8.10;99.90
27384;DHT22;14851;51.166;4.760;2023-11-21T02:13:06;8.10;99.90
27384;DHT22;14851;51.166;4.760;2023-11-21T02:15:32;8.10;99.90
27384;DHT22;14851;51.166;4.760;2023-11-21T02:17:58;8.20;99.90
27384;DHT22;14851;51.166;4.760;2023-11-21T02:20:27;8.10;99.90
27384;DHT22;14851;51.166;4.760;2023-11-21T02:22:56;8.20;99.90
27384;DHT22;14851;51.166;4.760;2023-11-21T02:25:29;8.20;99.90
27384;DHT22;14851;51.166;4.760;2023-11-21T02:27:56;8.20;99.90
27384;DHT22;14851;51.166;4.760;2023-11-21T02:30:22;8.20;99.90
27384;DHT22;14851;51.166;4.760;2023-11-21T02:32:52;8.20;99.90
27384;DHT22;14851;51.166;4.760;2023-11-21T02:35:22;8.10;99.90
27384;DHT22;14851;51.166;4.760;2023-11-21T02:37:49;8.10;99.90
27384;DHT22;14851;51.166;4.760;2023-11-21T02:40:16;8.20;99.90
27384;DHT22;14851;51.166;4.760;2023-11-21T02:42:49;8.20;99.90
27384;DHT22;14851;51.166;4.760;2023-11-21T02:45:20;8.20;99.90
27384;DHT22;14851;51.166;4.760;2023-11-21T02:47:48;8.20;99.90
27384;DHT22;14851;51.166;4.760;2023-11-21T02:50:20;8.20;99.90
27384;DHT22;14851;51.166;4.760;2023-11-21T02:52:48;8.20;99.90
27384;DHT22;14851;51.166;4.760;2023-11-21T02:55:16;8.10;99.90
27384;DHT22;14851;51.166;4.760;2023-11-21T02:57:43;8.10;99.90
27384;DHT22;14851;51.166;4.760;2023-11-21T03:00:11;8.20;99.90
27384;DHT22;14851;51.166;4.760;2023-11-21T03:02:38;8.20;99.90
27384;DHT22;14851;51.166;4.760;2023-11-21T03:05:07;8.20;99.90
27384;DHT22;14851;51.166;4.760;2023-11-21T03:07:36;8.20;99.90
27384;DHT22;14851;51.166;4.760;2023-11-21T03:10:04;8.20;99.90
27384;DHT22;14851;51.166;4.760;2023-11-21T03:12:30;8.20;99.90
27384;DHT22;14851;51.166;4.760;2023-11-21T03:14:56;8.20;99.90
27384;DHT22;14851;51.166;4.760;2023-11-21T03:17:25;8.20;99.90
27384;DHT22;14851;51.166;4.760;2023-11-21T03:19:52;8.20;99.90
27384;DHT22;14851;51.166;4.760;2023-11-21T03:22:18;8.20;99.90
27384;DHT22;14851;51.166;4.760;2023-11-21T03:24:44;8.20;99.90
27384;DHT22;14851;51.166;4.760;2023-11-21T03:27:10;8.20;99.90
27384;DHT22;14851;51.166;4.760;2023-11-21T03:29:38;8.20;99.90
27384;DHT22;14851;51.166;4.760;2023-11-21T03:32:05;8.20;99.90
27384;DHT22;14851;51.166;4.760;2023-11-21T03:34:33;8.20;99.90
27384;DHT22;14851;51.166;4.760;2023-11-21T03:37:00;8.20;99.90
27384;DHT22;14851;51.166;4.760;2023-11-21T03:39:27;8.20;99.90
27384;DHT22;14851;51.166;4.760;2023-11-21T03:41:55;8.20;99.90
27384;DHT22;14851;51.166;4.760;2023-11-21T03:44:21;8.20;99.90
27384;DHT22;14851;51.166;4.760;2023-11-21T03:46:47;8.30;99.90
27384;DHT22;14851;51.166;4.760;2023-11-21T03:49:15;8.30;99.90
27384;DHT22;14851;51.166;4.760;2023-11-21T03:51:41;8.20;99.90
27384;DHT22;14851;51.166;4.760;2023-11-21T03:54:07;8.20;99.90
27384;DHT22;14851;51.166;4.760;2023-11-21T03:56:33;8.30;99.90
27384;DHT22;14851;51.166;4.760;2023-11-21T03:58:59;8.30;99.90
27384;DHT22;14851;51.166;4.760;2023-11-21T04:01:25;8.30;99.90
27384;DHT22;14851;51.166;4.760;2023-11-21T04:03:51;8.30;99.90
27384;DHT22;14851;51.166;4.760;2023-11-21T04:06:19;8.30;99.90
27384;DHT22;14851;51.166;4.760;2023-11-21T04:08:45;8.30;99.90
27384;DHT22;14851;51.166;4.760;2023-11-21T04:11:12;8.30;99.90
27384;DHT22;14851;51.166;4.760;2023-11-21T04:13:38;8.30;99.90
27384;DHT22;14851;51.166;4.760;2023-11-21T04:16:06;8.30;99.90
27384;DHT22;14851;51.166;4.760;2023-11-21T04:18:32;8.30;99.90
27384;DHT22;14851;51.166;4.760;2023-11-21T04:21:00;8.30;99.90
27384;DHT22;14851;51.166;4.760;2023-11-21T04:23:27;8.30;99.90
27384;DHT22;14851;51.166;4.760;2023-11-21T04:25:55;8.40;99.90
27384;DHT22;14851;51.166;4.760;2023-11-21T04:28:27;8.40;99.90
27384;DHT22;14851;51.166;4.760;2023-11-21T04:30:54;8.40;99.90
27384;DHT22;14851;51.166;4.760;2023-11-21T04:33:20;8.40;99.90
27384;DHT22;14851;51.166;4.760;2023-11-21T04:35:47;8.40;99.90
27384;DHT22;14851;51.166;4.760;2023-11-21T04:38:15;8.40;99.90
27384;DHT22;14851;51.166;4.760;2023-11-21T04:40:44;8.40;99.90
27384;DHT22;14851;51.166;4.760;2023-11-21T04:43:13;8.40;99.90
27384;DHT22;14851;51.166;4.760;2023-11-21T04:45:39;8.40;99.90
27384;DHT22;14851;51.166;4.760;2023-11-21T04:48:07;8.40;99.90
27384;DHT22;14851;51.166;4.760;2023-11-21T04:50:34;8.40;99.90
27384;DHT22;14851;51.166;4.760;2023-11-21T04:53:02;8.40;99.90
27384;DHT22;14851;51.166;4.760;2023-11-21T04:55:28;8.40;99.90
27384;DHT22;14851;51.166;4.760;2023-11-21T04:57:54;8.40;99.90
27384;DHT22;14851;51.166;4.760;2023-11-21T05:00:20;8.40;99.90
27384;DHT22;14851;51.166;4.760;2023-11-21T05:02:50;8.40;99.90
27384;DHT22;14851;51.166;4.760;2023-11-21T05:05:18;8.50;99.90
27384;DHT22;14851;51.166;4.760;2023-11-21T05:07:44;8.40;99.90
27384;DHT22;14851;51.166;4.760;2023-11-21T05:10:10;8.50;99.90
27384;DHT22;14851;51.166;4.760;2023-11-21T05:12:38;8.50;99.90
27384;DHT22;14851;51.166;4.760;2023-11-21T05:15:05;8.50;99.90
27384;DHT22;14851;51.166;4.760;2023-11-21T05:17:38;8.40;99.90
27384;DHT22;14851;51.166;4.760;2023-11-21T05:20:08;8.40;99.90
27384;DHT22;14851;51.166;4.760;2023-11-21T05:22:36;8.40;99.90
27384;DHT22;14851;51.166;4.760;2023-11-21T05:25:03;8.40;99.90
27384;DHT22;14851;51.166;4.760;2023-11-21T05:27:35;8.50;99.90
27384;DHT22;14851;51.166;4.760;2023-11-21T05:30:03;8.50;99.90
27384;DHT22;14851;51.166;4.760;2023-11-21T05:32:31;8.50;99.90
27384;DHT22;14851;51.166;4.760;2023-11-21T05:34:57;8.50;99.90
27384;DHT22;14851;51.166;4.760;2023-11-21T05:37:24;8.50;99.90
27384;DHT22;14851;51.166;4.760;2023-11-21T05:39:53;8.50;99.90
27384;DHT22;14851;51.166;4.760;2023-11-21T05:42:20;8.50;99.90
27384;DHT22;14851;51.166;4.760;2023-11-21T05:44:46;8.50;99.90
27384;DHT22;14851;51.166;4.760;2023-11-21T05:47:13;8.50;99.90
27384;DHT22;14851;51.166;4.760;2023-11-21T05:49:39;8.50;99.90
27384;DHT22;14851;51.166;4.760;2023-11-21T05:52:05;8.50;99.90
27384;DHT22;14851;51.166;4.760;2023-11-21T05:54:32;8.50;99.90
27384;DHT22;14851;51.166;4.760;2023-11-21T05:57:01;8.50;99.90
27384;DHT22;14851;51.166;4.760;2023-11-21T05:59:29;8.50;99.90
27384;DHT22;14851;51.166;4.760;2023-11-21T06:01:55;8.50;99.90
27384;DHT22;14851;51.166;4.760;2023-11-21T06:04:23;8.50;99.90
27384;DHT22;14851;51.166;4.760;2023-11-21T06:06:53;8.50;99.90
27384;DHT22;14851;51.166;4.760;2023-11-21T06:09:19;8.60;99.90
27384;DHT22;14851;51.166;4.760;2023-11-21T06:11:46;8.60;99.90
27384;DHT22;14851;51.166;4.760;2023-11-21T06:14:12;8.50;99.90
27384;DHT22;14851;51.166;4.760;2023-11-21T06:16:40;8.60;99.90
27384;DHT22;14851;51.166;4.760;2023-11-21T06:19:06;8.60;99.90
27384;DHT22;14851;51.166;4.760;2023-11-21T06:21:32;8.60;99.90
27384;DHT22;14851;51.166;4.760;2023-11-21T06:23:59;8.60;99.90
27384;DHT22;14851;51.166;4.760;2023-11-21T06:26:25;8.60;99.90
27384;DHT22;14851;51.166;4.760;2023-11-21T06:28:53;8.60;99.90
27384;DHT22;14851;51.166;4.760;2023-11-21T06:31:19;8.60;99.90
27384;DHT22;14851;51.166;4.760;2023-11-21T06:33:45;8.60;99.90
27384;DHT22;14851;51.166;4.760;2023-11-21T06:36:13;8.60;99.90
27384;DHT22;14851;51.166;4.760;2023-11-21T06:38:41;8.70;99.90
27384;DHT22;14851;51.166;4.760;2023-11-21T06:41:07;8.70;99.90
27384;DHT22;14851;51.166;4.760;2023-11-21T06:43:35;8.70;99.90
27384;DHT22;14851;51.166;4.760;2023-11-21T06:46:02;8.70;99.90
27384;DHT22;14851;51.166;4.760;2023-11-21T06:48:28;8.70;99.90
27384;DHT22;14851;51.166;4.760;2023-11-21T06:50:55;8.70;99.90
27384;DHT22;14851;51.166;4.760;2023-11-21T06:53:21;8.70;99.90
27384;DHT22;14851;51.166;4.760;2023-11-21T06:55:48;8.60;99.90
27384;DHT22;14851;51.166;4.760;2023-11-21T06:58:15;8.60;99.90
27384;DHT22;14851;51.166;4.760;2023-11-21T07:00:41;8.60;99.90
27384;DHT22;14851;51.166;4.760;2023-11-21T07:03:12;8.60;99.90
27384;DHT22;14851;51.166;4.760;2023-11-21T07:05:40;8.60;99.90
27384;DHT22;14851;51.166;4.760;2023-11-21T07:08:06;8.60;99.90
27384;DHT22;14851;51.166;4.760;2023-11-21T07:10:33;8.70;99.90
27384;DHT22;14851;51.166;4.760;2023-11-21T07:13:00;8.70;99.90
27384;DHT22;14851;51.166;4.760;2023-11-21T07:15:27;8.60;99.90
27384;DHT22;14851;51.166;4.760;2023-11-21T07:17:56;8.70;99.90
27384;DHT22;14851;51.166;4.760;2023-11-21T07:20:22;8.70;99.90
27384;DHT22;14851;51.166;4.760;2023-11-21T07:22:49;8.70;99.90
27384;DHT22;14851;51.166;4.760;2023-11-21T07:25:14;8.70;99.90
27384;DHT22;14851;51.166;4.760;2023-11-21T07:27:40;8.70;99.90
27384;DHT22;14851;51.166;4.760;2023-11-21T07:30:07;8.80;99.90
27384;DHT22;14851;51.166;4.760;2023-11-21T07:32:35;8.80;99.90
27384;DHT22;14851;51.166;4.760;2023-11-21T07:35:01;8.80;99.90
27384;DHT22;14851;51.166;4.760;2023-11-21T07:37:30;8.80;99.90
27384;DHT22;14851;51.166;4.760;2023-11-21T07:39:56;8.80;99.90
27384;DHT22;14851;51.166;4.760;2023-11-21T07:42:23;8.80;99.90
27384;DHT22;14851;51.166;4.760;2023-11-21T07:44:52;8.80;99.90
27384;DHT22;14851;51.166;4.760;2023-11-21T07:47:18;8.90;99.90
27384;DHT22;14851;51.166;4.760;2023-11-21T07:49:44;8.90;99.90
27384;DHT22;14851;51.166;4.760;2023-11-21T07:52:13;8.90;99.90
27384;DHT22;14851;51.166;4.760;2023-11-21T07:54:40;8.90;99.90
27384;DHT22;14851;51.166;4.760;2023-11-21T07:57:09;8.90;99.90
27384;DHT22;14851;51.166;4.760;2023-11-21T07:59:39;8.90;99.90
27384;DHT22;14851;51.166;4.760;2023-11-21T08:02:06;8.90;99.90
27384;DHT22;14851;51.166;4.760;2023-11-21T08:04:33;8.90;99.90
27384;DHT22;14851;51.166;4.760;2023-11-21T08:07:01;9.00;99.90
27384;DHT22;14851;51.166;4.760;2023-11-21T08:09:27;8.90;99.90
27384;DHT22;14851;51.166;4.760;2023-11-21T08:11:53;8.90;99.90
27384;DHT22;14851;51.166;4.760;2023-11-21T08:14:19;8.90;99.90
27384;DHT22;14851;51.166;4.760;2023-11-21T08:16:46;9.00;99.90
27384;DHT22;14851;51.166;4.760;2023-11-21T08:19:11;9.00;99.90
27384;DHT22;14851;51.166;4.760;2023-11-21T08:21:39;9.00;99.90
27384;DHT22;14851;51.166;4.760;2023-11-21T08:24:08;9.00;99.90
27384;DHT22;14851;51.166;4.760;2023-11-21T08:26:37;9.00;99.90
27384;DHT22;14851;51.166;4.760;2023-11-21T08:29:03;9.00;99.90
27384;DHT22;14851;51.166;4.760;2023-11-21T08:31:31;9.00;99.90
27384;DHT22;14851;51.166;4.760;2023-11-21T08:33:57;9.00;99.90
27384;DHT22;14851;51.166;4.760;2023-11-21T08:36:23;9.10;99.90
27384;DHT22;14851;51.166;4.760;2023-11-21T08:38:50;9.10;99.90
27384;DHT22;14851;51.166;4.760;2023-11-21T08:41:18;9.10;99.90
27384;DHT22;14851;51.166;4.760;2023-11-21T08:43:51;9.10;99.90
27384;DHT22;14851;51.166;4.760;2023-11-21T08:46:18;9.10;99.90
27384;DHT22;14851;51.166;4.760;2023-11-21T08:48:44;9.20;99.90
27384;DHT22;14851;51.166;4.760;2023-11-21T08:51:11;9.20;99.90
27384;DHT22;14851;51.166;4.760;2023-11-21T08:53:39;9.20;99.90
27384;DHT22;14851;51.166;4.760;2023-11-21T08:56:06;9.20;99.90
27384;DHT22;14851;51.166;4.760;2023-11-21T08:58:32;9.30;99.90
27384;DHT22;14851;51.166;4.760;2023-11-21T09:00:58;9.30;99.90
27384;DHT22;14851;51.166;4.760;2023-11-21T09:03:24;9.30;99.90
27384;DHT22;14851;51.166;4.760;2023-11-21T09:05:57;9.30;99.90
27384;DHT22;14851;51.166;4.760;2023-11-21T09:08:25;9.40;99.90
27384;DHT22;14851;51.166;4.760;2023-11-21T09:10:53;9.30;99.90
27384;DHT22;14851;51.166;4.760;2023-11-21T09:13:21;9.40;99.90
27384;DHT22;14851;51.166;4.760;2023-11-21T09:15:47;9.40;99.90
27384;DHT22;14851;51.166;4.760;2023-11-21T09:18:15;9.40;99.90
27384;DHT22;14851;51.166;4.760;2023-11-21T09:20:46;9.50;99.90
27384;DHT22;14851;51.166;4.760;2023-11-21T09:23:12;9.60;99.90
27384;DHT22;14851;51.166;4.760;2023-11-21T09:25:38;9.60;99.90
27384;DHT22;14851;51.166;4.760;2023-11-21T09:28:05;9.70;99.90
27384;DHT22;14851;51.166;4.760;2023-11-21T09:30:37;9.60;99.90
27384;DHT22;14851;51.166;4.760;2023-11-21T09:33:04;9.70;99.90
27384;DHT22;14851;51.166;4.760;2023-11-21T09:35:37;9.70;99.90
27384;DHT22;14851;51.166;4.760;2023-11-21T09:38:05;9.80;99.90
27384;DHT22;14851;51.166;4.760;2023-11-21T09:40:39;9.80;99.90
27384;DHT22;14851;51.166;4.760;2023-11-21T09:43:17;9.80;99.90
27384;DHT22;14851;51.166;4.760;2023-11-21T09:45:55;9.80;99.90
27384;DHT22;14851;51.166;4.760;2023-11-21T09:48:25;9.80;99.90
27384;DHT22;14851;51.166;4.760;2023-11-21T09:50:53;9.90;99.90
27384;DHT22;14851;51.166;4.760;2023-11-21T09:53:20;9.80;99.90
27384;DHT22;14851;51.166;4.760;2023-11-21T09:55:48;9.80;99.90
27384;DHT22;14851;51.166;4.760;2023-11-21T09:58:16;9.80;99.90
27384;DHT22;14851;51.166;4.760;2023-11-21T10:00:45;9.80;99.90
27384;DHT22;14851;51.166;4.760;2023-11-21T10:03:14;9.80;99.90
27384;DHT22;14851;51.166;4.760;2023-11-21T10:05:42;9.80;99.90
27384;DHT22;14851;51.166;4.760;2023-11-21T10:08:11;9.80;99.90
27384;DHT22;14851;51.166;4.760;2023-11-21T10:10:39;9.80;99.90
27384;DHT22;14851;51.166;4.760;2023-11-21T10:13:13;9.80;99.90
27384;DHT22;14851;51.166;4.760;2023-11-21T10:15:42;9.80;99.90
27384;DHT22;14851;51.166;4.760;2023-11-21T10:18:15;9.80;99.90
27384;DHT22;14851;51.166;4.760;2023-11-21T10:20:41;9.90;99.90
27384;DHT22;14851;51.166;4.760;2023-11-21T10:23:10;9.90;99.90
27384;DHT22;14851;51.166;4.760;2023-11-21T10:25:37;9.90;99.90
27384;DHT22;14851;51.166;4.760;2023-11-21T10:28:05;9.90;99.90
27384;DHT22;14851;51.166;4.760;2023-11-21T10:30:38;9.90;99.90
27384;DHT22;14851;51.166;4.760;2023-11-21T10:33:06;9.90;99.90
27384;DHT22;14851;51.166;4.760;2023-11-21T10:35:42;9.90;99.90
27384;DHT22;14851;51.166;4.760;2023-11-21T10:38:08;9.90;99.90
27384;DHT22;14851;51.166;4.760;2023-11-21T10:40:41;9.90;99.90
27384;DHT22;14851;51.166;4.760;2023-11-21T10:43:11;9.90;99.90
27384;DHT22;14851;51.166;4.760;2023-11-21T10:45:41;9.90;99.90
27384;DHT22;14851;51.166;4.760;2023-11-21T10:48:09;9.90;99.90
27384;DHT22;14851;51.166;4.760;2023-11-21T10:50:36;10.00;99.90
27384;DHT22;14851;51.166;4.760;2023-11-21T10:53:04;10.00;99.90
27384;DHT22;14851;51.166;4.760;2023-11-21T10:55:33;10.10;99.90
27384;DHT22;14851;51.166;4.760;2023-11-21T10:58:04;10.10;99.90
27384;DHT22;14851;51.166;4.760;2023-11-21T11:00:31;10.10;99.90
27384;DHT22;14851;51.166;4.760;2023-11-21T11:02:57;10.10;99.90
27384;DHT22;14851;51.166;4.760;2023-11-21T11:05:28;10.20;99.90
27384;DHT22;14851;51.166;4.760;2023-11-21T11:08:01;10.20;99.90
27384;DHT22;14851;51.166;4.760;2023-11-21T11:10:32;10.20;99.90
27384;DHT22;14851;51.166;4.760;2023-11-21T11:12:58;10.20;99.90
27384;DHT22;14851;51.166;4.760;2023-11-21T11:15:26;10.30;99.90
27384;DHT22;14851;51.166;4.760;2023-11-21T11:17:53;10.30;99.90
27384;DHT22;14851;51.166;4.760;2023-11-21T11:20:34;10.30;99.90
27384;DHT22;14851;51.166;4.760;2023-11-21T11:23:32;10.40;99.90
27384;DHT22;14851;51.166;4.760;2023-11-21T11:29:45;10.40;99.90
27384;DHT22;14851;51.166;4.760;2023-11-21T11:32:40;10.40;99.90
27384;DHT22;14851;51.166;4.760;2023-11-21T11:35:34;10.40;99.90
27384;DHT22;14851;51.166;4.760;2023-11-21T11:38:03;10.40;99.90
27384;DHT22;14851;51.166;4.760;2023-11-21T11:40:45;10.40;99.90
27384;DHT22;14851;51.166;4.760;2023-11-21T11:43:11;10.40;99.90
27384;DHT22;14851;51.166;4.760;2023-11-21T11:45:38;10.50;99.90
27384;DHT22;14851;51.166;4.760;2023-11-21T11:48:10;10.50;99.90
27384;DHT22;14851;51.166;4.760;2023-11-21T11:51:04;10.50;99.90
27384;DHT22;14851;51.166;4.760;2023-11-21T11:53:36;10.50;99.90
27384;DHT22;14851;51.166;4.760;2023-11-21T11:56:31;10.60;99.90
27384;DHT22;14851;51.166;4.760;2023-11-21T11:59:03;10.60;99.90
27384;DHT22;14851;51.166;4.760;2023-11-21T12:01:32;10.60;99.90
27384;DHT22;14851;51.166;4.760;2023-11-21T12:06:43;10.60;99.90
27384;DHT22;14851;51.166;4.760;2023-11-21T12:09:28;10.70;99.90
27384;DHT22;14851;51.166;4.760;2023-11-21T12:11:58;10.70;99.90
27384;DHT22;14851;51.166;4.760;2023-11-21T12:14:26;10.70;99.90
27384;DHT22;14851;51.166;4.760;2023-11-21T12:16:53;10.70;99.90
27384;DHT22;14851;51.166;4.760;2023-11-21T12:19:19;10.70;99.90
27384;DHT22;14851;51.166;4.760;2023-11-21T12:21:46;10.80;99.90
27384;DHT22;14851;51.166;4.760;2023-11-21T12:24:14;10.80;99.90
27384;DHT22;14851;51.166;4.760;2023-11-21T12:26:44;10.80;99.90
27384;DHT22;14851;51.166;4.760;2023-11-21T12:29:11;10.80;99.90
27384;DHT22;14851;51.166;4.760;2023-11-21T12:31:37;10.80;99.90
27384;DHT22;14851;51.166;4.760;2023-11-21T12:34:04;10.90;99.90
27384;DHT22;14851;51.166;4.760;2023-11-21T12:36:32;10.90;99.90
27384;DHT22;14851;51.166;4.760;2023-11-21T12:38:59;10.90;99.90
27384;DHT22;14851;51.166;4.760;2023-11-21T12:41:26;10.90;99.90
27384;DHT22;14851;51.166;4.760;2023-11-21T12:43:51;11.00;99.90
27384;DHT22;14851;51.166;4.760;2023-11-21T12:46:18;11.00;99.90
27384;DHT22;14851;51.166;4.760;2023-11-21T12:48:47;11.00;99.90
27384;DHT22;14851;51.166;4.760;2023-11-21T12:51:13;11.00;99.90
27384;DHT22;14851;51.166;4.760;2023-11-21T12:53:44;11.00;99.90
27384;DHT22;14851;51.166;4.760;2023-11-21T12:56:11;11.00;99.90
27384;DHT22;14851;51.166;4.760;2023-11-21T12:58:44;11.00;99.90
27384;DHT22;14851;51.166;4.760;2023-11-21T13:01:16;11.00;99.90
27384;DHT22;14851;51.166;4.760;2023-11-21T13:03:47;11.10;99.90
27384;DHT22;14851;51.166;4.760;2023-11-21T13:06:15;11.00;99.90
27384;DHT22;14851;51.166;4.760;2023-11-21T13:08:41;11.10;99.90
27384;DHT22;14851;51.166;4.760;2023-11-21T13:11:12;11.10;99.90
27384;DHT22;14851;51.166;4.760;2023-11-21T13:13:41;11.10;99.90
27384;DHT22;14851;51.166;4.760;2023-11-21T13:16:08;11.10;99.90
27384;DHT22;14851;51.166;4.760;2023-11-21T13:18:35;11.10;99.90
27384;DHT22;14851;51.166;4.760;2023-11-21T13:21:04;11.10;99.90
27384;DHT22;14851;51.166;4.760;2023-11-21T13:23:41;11.10;99.90
27384;DHT22;14851;51.166;4.760;2023-11-21T13:26:08;11.10;99.90
27384;DHT22;14851;51.166;4.760;2023-11-21T13:28:35;11.20;99.90
27384;DHT22;14851;51.166;4.760;2023-11-21T13:31:04;11.10;99.90
27384;DHT22;14851;51.166;4.760;2023-11-21T13:33:49;11.10;99.90
27384;DHT22;14851;51.166;4.760;2023-11-21T13:36:24;11.10;99.90
27384;DHT22;14851;51.166;4.760;2023-11-21T13:38:52;11.10;99.90
27384;DHT22;14851;51.166;4.760;2023-11-21T13:41:21;11.00;99.90
27384;DHT22;14851;51.166;4.760;2023-11-21T13:43:56;11.10;99.90
27384;DHT22;14851;51.166;4.760;2023-11-21T13:46:41;11.10;99.90
27384;DHT22;14851;51.166;4.760;2023-11-21T13:49:11;11.10;99.90
27384;DHT22;14851;51.166;4.760;2023-11-21T13:51:37;11.10;99.90
27384;DHT22;14851;51.166;4.760;2023-11-21T13:54:08;11.10;99.90
27384;DHT22;14851;51.166;4.760;2023-11-21T13:56:38;11.00;99.90
27384;DHT22;14851;51.166;4.760;2023-11-21T13:59:06;11.10;99.90
27384;DHT22;14851;51.166;4.760;2023-11-21T14:01:46;11.10;99.90
27384;DHT22;14851;51.166;4.760;2023-11-21T14:04:22;11.10;99.90
27384;DHT22;14851;51.166;4.760;2023-11-21T14:06:57;11.10;99.90
27384;DHT22;14851;51.166;4.760;2023-11-21T14:09:26;11.10;99.90
27384;DHT22;14851;51.166;4.760;2023-11-21T14:11:58;11.10;99.90
27384;DHT22;14851;51.166;4.760;2023-11-21T14:14:27;11.10;99.90
27384;DHT22;14851;51.166;4.760;2023-11-21T14:16:59;11.10;99.90
27384;DHT22;14851;51.166;4.760;2023-11-21T14:19:28;11.10;99.90
27384;DHT22;14851;51.166;4.760;2023-11-21T14:21:57;11.10;99.90
27384;DHT22;14851;51.166;4.760;2023-11-21T14:24:24;11.10;99.90
27384;DHT22;14851;51.166;4.760;2023-11-21T14:26:51;11.10;99.90
27384;DHT22;14851;51.166;4.760;2023-11-21T14:29:20;11.10;99.90
27384;DHT22;14851;51.166;4.760;2023-11-21T14:31:46;11.00;99.90
27384;DHT22;14851;51.166;4.760;2023-11-21T14:34:13;11.00;99.90
27384;DHT22;14851;51.166;4.760;2023-11-21T14:36:41;11.00;99.90
27384;DHT22;14851;51.166;4.760;2023-11-21T14:39:10;11.00;99.90
27384;DHT22;14851;51.166;4.760;2023-11-21T14:41:51;10.90;99.90
27384;DHT22;14851;51.166;4.760;2023-11-21T14:44:20;10.90;99.90
27384;DHT22;14851;51.166;4.760;2023-11-21T14:46:51;10.80;99.90
27384;DHT22;14851;51.166;4.760;2023-11-21T14:49:17;10.90;99.90
27384;DHT22;14851;51.166;4.760;2023-11-21T14:51:47;10.90;99.90
27384;DHT22;14851;51.166;4.760;2023-11-21T14:54:34;10.90;99.90
27384;DHT22;14851;51.166;4.760;2023-11-21T14:57:10;10.90;99.90
27384;DHT22;14851;51.166;4.760;2023-11-21T14:59:44;10.90;99.90
27384;DHT22;14851;51.166;4.760;2023-11-21T15:02:18;10.90;99.90
27384;DHT22;14851;51.166;4.760;2023-11-21T15:04:49;10.90;99.90
27384;DHT22;14851;51.166;4.760;2023-11-21T15:07:18;10.90;99.90
27384;DHT22;14851;51.166;4.760;2023-11-21T15:09:44;10.90;99.90
27384;DHT22;14851;51.166;4.760;2023-11-21T15:12:11;10.90;99.90
27384;DHT22;14851;51.166;4.760;2023-11-21T15:14:50;10.90;99.90
27384;DHT22;14851;51.166;4.760;2023-11-21T15:17:22;10.90;99.90
27384;DHT22;14851;51.166;4.760;2023-11-21T15:19:56;10.80;99.90
27384;DHT22;14851;51.166;4.760;2023-11-21T15:22:22;10.80;99.90
27384;DHT22;14851;51.166;4.760;2023-11-21T15:24:54;10.80;99.90
27384;DHT22;14851;51.166;4.760;2023-11-21T15:27:23;10.80;99.90
27384;DHT22;14851;51.166;4.760;2023-11-21T15:29:50;10.80;99.90
27384;DHT22;14851;51.166;4.760;2023-11-21T15:32:18;10.80;99.90
27384;DHT22;14851;51.166;4.760;2023-11-21T15:34:48;10.80;99.90
27384;DHT22;14851;51.166;4.760;2023-11-21T15:37:17;10.80;99.90
27384;DHT22;14851;51.166;4.760;2023-11-21T15:39:44;10.80;99.90
27384;DHT22;14851;51.166;4.760;2023-11-21T15:42:10;10.80;99.90
27384;DHT22;14851;51.166;4.760;2023-11-21T15:44:40;10.80;99.90
27384;DHT22;14851;51.166;4.760;2023-11-21T15:47:06;10.70;99.90
27384;DHT22;14851;51.166;4.760;2023-11-21T15:49:34;10.70;99.90
27384;DHT22;14851;51.166;4.760;2023-11-21T15:52:05;10.70;99.90
27384;DHT22;14851;51.166;4.760;2023-11-21T15:54:32;10.70;99.90
27384;DHT22;14851;51.166;4.760;2023-11-21T15:57:00;10.70;99.90